Time;durP1;ratioP1;P1;durP2;ratioP2;P2;SDS_P1;SDS_P2;PMS_P1;PMS_P2;Temp;Humidity;BMP_temperature;BMP_pressure;BME280_temperature;BME280_humidity;BME280_pressure;Samples;Min_cycle;Max_cycle;Signal;HPM_P1;HPM_P2
2021/04/04 00:01:57;;;;;;;8.02;3.00;;;17.10;54.20;;;;;;5053830;28;20103;-71
2021/04/04 00:04:23;;;;;;;8.95;3.40;;;17.20;54.30;;;;;;5035411;28;20507;-71
2021/04/04 00:06:48;;;;;;;7.28;3.35;;;17.10;54.20;;;;;;5053566;28;20055;-71
2021/04/04 00:09:19;;;;;;;10.27;3.33;;;17.20;54.30;;;;;;5035622;28;20065;-71
2021/04/04 00:11:44;;;;;;;7.43;3.13;;;17.20;54.80;;;;;;5035751;28;20063;-70
2021/04/04 00:14:10;;;;;;;7.43;3.20;;;17.20;54.20;;;;;;5053228;28;20052;-69
2021/04/04 00:16:35;;;;;;;5.60;2.60;;;17.10;54.30;;;;;;5053727;28;20025;-70
2021/04/04 00:19:01;;;;;;;6.43;2.60;;;17.10;54.30;;;;;;5035617;28;20028;-70
2021/04/04 00:21:26;;;;;;;7.68;3.10;;;17.10;54.20;;;;;;5053137;28;20399;-70
2021/04/04 00:23:52;;;;;;;7.50;3.08;;;17.10;54.30;;;;;;5052395;28;20068;-70
2021/04/04 00:26:17;;;;;;;8.40;3.78;;;17.10;54.30;;;;;;5035595;28;20120;-70
2021/04/04 00:28:43;;;;;;;7.97;3.00;;;17.10;54.30;;;;;;5035679;28;20038;-68
2021/04/04 00:31:09;;;;;;;9.38;3.20;;;17.10;54.30;;;;;;5015988;28;20446;-70
2021/04/04 00:33:35;;;;;;;6.88;2.97;;;17.10;54.40;;;;;;5050877;28;20021;-70
2021/04/04 00:36:01;;;;;;;6.88;2.95;;;17.00;54.40;;;;;;5053496;28;20021;-66
2021/04/04 00:38:27;;;;;;;6.32;2.85;;;17.10;54.40;;;;;;5052662;28;20379;-70
2021/04/04 00:40:53;;;;;;;6.57;3.00;;;17.00;54.30;;;;;;5052900;28;20407;-70
2021/04/04 00:43:19;;;;;;;7.72;2.75;;;17.00;54.50;;;;;;5033236;28;20052;-68
2021/04/04 00:45:44;;;;;;;7.15;2.80;;;17.00;54.40;;;;;;5034752;28;20076;-70
2021/04/04 00:48:10;;;;;;;7.20;3.13;;;17.00;54.50;;;;;;5035028;28;20106;-71
2021/04/04 00:50:38;;;;;;;7.45;2.90;;;17.00;54.50;;;;;;5053125;28;20506;-69
2021/04/04 00:53:05;;;;;;;12.55;3.25;;;17.00;54.50;;;;;;5051431;28;20452;-71
2021/04/04 00:55:31;;;;;;;7.95;3.10;;;17.00;54.40;;;;;;5053355;28;20032;-69
2021/04/04 00:57:57;;;;;;;6.78;2.85;;;17.00;54.50;;;;;;5040867;28;20021;-71
2021/04/04 01:00:27;;;;;;;7.35;2.92;;;17.00;54.50;;;;;;5033154;28;20021;-71
2021/04/04 01:02:55;;;;;;;6.07;2.60;;;16.90;54.40;;;;;;5032872;28;20033;-70
2021/04/04 01:05:26;;;;;;;7.88;3.00;;;17.00;54.50;;;;;;5033049;28;20029;-70
2021/04/04 01:07:55;;;;;;;7.97;2.70;;;17.00;54.40;;;;;;5025281;28;20448;-72
2021/04/04 01:10:23;;;;;;;7.53;2.80;;;16.90;54.50;;;;;;5052832;28;20546;-71
2021/04/04 01:13:32;;;;;;;8.07;2.70;;;16.90;54.50;;;;;;5034522;28;20538;-68
2021/04/04 01:16:23;;;;;;;7.90;2.85;;;17.00;54.60;;;;;;5021088;28;20029;-72
2021/04/04 01:19:25;;;;;;;7.97;2.72;;;16.90;54.50;;;;;;5043560;28;20025;-70
2021/04/04 01:21:57;;;;;;;7.10;2.80;;;16.90;54.50;;;;;;5032973;28;20032;-72
2021/04/04 01:24:36;;;;;;;6.63;3.13;;;16.90;54.50;;;;;;5052061;28;20029;-70
2021/04/04 01:27:10;;;;;;;6.65;2.67;;;16.90;54.50;;;;;;5021337;28;20025;-69
2021/04/04 01:29:38;;;;;;;7.07;2.80;;;16.90;54.60;;;;;;5052286;28;20032;-70
2021/04/04 01:32:05;;;;;;;6.57;2.92;;;16.90;54.70;;;;;;5034049;28;20040;-71
2021/04/04 01:34:31;;;;;;;6.00;2.38;;;16.80;54.60;;;;;;5051840;28;20020;-67
2021/04/04 01:37:43;;;;;;;8.35;2.78;;;16.80;54.60;;;;;;5051275;28;20055;-70
2021/04/04 01:40:13;;;;;;;8.57;2.70;;;16.90;54.60;;;;;;5032751;28;20097;-70
2021/04/04 01:42:41;;;;;;;7.03;2.70;;;16.80;54.60;;;;;;5051612;28;20036;-70
2021/04/04 01:45:08;;;;;;;6.45;2.63;;;16.80;54.70;;;;;;5051707;28;20051;-70
2021/04/04 01:47:35;;;;;;;6.93;2.72;;;16.80;54.60;;;;;;5034305;28;20507;-71
2021/04/04 01:50:03;;;;;;;7.45;2.80;;;16.80;54.70;;;;;;5051572;28;20025;-70
2021/04/04 01:52:29;;;;;;;6.00;2.58;;;16.70;54.70;;;;;;5045207;28;20025;-68
2021/04/04 01:54:57;;;;;;;7.97;2.38;;;16.80;54.70;;;;;;5032141;28;20095;-71
2021/04/04 01:57:23;;;;;;;6.65;2.47;;;16.80;54.70;;;;;;5045018;28;20391;-70
2021/04/04 01:59:50;;;;;;;6.30;2.30;;;16.80;54.80;;;;;;5051626;28;20028;-70
2021/04/04 02:02:15;;;;;;;6.43;2.10;;;16.70;54.70;;;;;;5051672;28;20036;-67
2021/04/04 02:04:42;;;;;;;7.60;3.13;;;16.70;54.70;;;;;;5051475;28;20029;-70
2021/04/04 02:07:08;;;;;;;6.32;2.38;;;16.70;54.70;;;;;;5050285;28;20025;-69
2021/04/04 02:09:37;;;;;;;6.65;2.63;;;16.70;54.70;;;;;;5033613;28;20029;-70
2021/04/04 02:12:04;;;;;;;6.03;2.47;;;16.70;54.70;;;;;;5051275;28;20471;-70
2021/04/04 02:14:29;;;;;;;7.07;2.40;;;16.70;54.80;;;;;;5034566;28;20053;-70
2021/04/04 02:16:56;;;;;;;6.70;2.70;;;16.70;54.80;;;;;;5031700;28;20164;-70
2021/04/04 02:19:25;;;;;;;5.22;2.03;;;16.70;54.80;;;;;;5036557;28;20208;-70
2021/04/04 02:21:54;;;;;;;6.97;2.20;;;16.70;54.80;;;;;;5026079;28;20053;-70
2021/04/04 02:24:21;;;;;;;5.80;2.20;;;16.70;54.80;;;;;;5014271;28;20021;-70
2021/04/04 02:26:47;;;;;;;5.28;2.55;;;16.70;54.80;;;;;;5047830;28;20400;-71
2021/04/04 02:29:13;;;;;;;5.30;2.22;;;16.70;54.70;;;;;;5032700;28;20053;-68
2021/04/04 02:31:46;;;;;;;6.05;2.28;;;16.70;54.70;;;;;;5033163;28;20056;-70
2021/04/04 02:34:19;;;;;;;8.50;2.35;;;16.60;54.80;;;;;;5050421;28;20029;-70
2021/04/04 02:36:46;;;;;;;6.15;2.22;;;16.60;54.80;;;;;;5039785;28;20484;-71
2021/04/04 02:39:33;;;;;;;4.72;2.17;;;16.60;54.80;;;;;;5045617;28;20107;-71
2021/04/04 02:42:01;;;;;;;6.28;2.50;;;16.60;54.90;;;;;;5051023;28;20024;-67
2021/04/04 02:44:29;;;;;;;6.22;2.30;;;16.60;54.80;;;;;;5050625;28;20489;-71
2021/04/04 02:46:58;;;;;;;6.72;2.40;;;16.60;54.90;;;;;;5050360;28;20104;-71
2021/04/04 02:49:32;;;;;;;6.35;2.05;;;16.60;55.00;;;;;;5050666;28;20399;-71
2021/04/04 02:52:02;;;;;;;6.28;2.20;;;16.60;55.00;;;;;;5049822;28;20102;-71
2021/04/04 02:54:29;;;;;;;6.35;2.13;;;16.60;55.00;;;;;;5050348;28;20025;-70
2021/04/04 02:56:56;;;;;;;5.32;2.17;;;16.60;55.00;;;;;;5032744;28;20033;-70
2021/04/04 02:59:30;;;;;;;7.25;2.58;;;16.60;55.00;;;;;;5048961;28;20484;-71
2021/04/04 03:01:59;;;;;;;6.40;2.20;;;16.50;55.00;;;;;;5049640;28;20033;-71
2021/04/04 03:04:26;;;;;;;7.65;2.35;;;16.60;55.20;;;;;;5050463;28;20032;-68
2021/04/04 03:06:53;;;;;;;6.03;2.20;;;16.50;55.20;;;;;;5032227;28;20028;-70
2021/04/04 03:09:20;;;;;;;6.90;2.35;;;16.50;55.20;;;;;;5049341;28;20384;-70
2021/04/04 03:11:47;;;;;;;5.82;1.73;;;16.50;55.20;;;;;;5050562;28;20522;-70
2021/04/04 03:14:14;;;;;;;6.03;2.30;;;16.50;55.20;;;;;;5050675;28;20029;-71
2021/04/04 03:16:40;;;;;;;5.28;2.03;;;16.50;55.20;;;;;;5050473;28;20033;-68
2021/04/04 03:19:08;;;;;;;7.68;1.92;;;16.50;55.20;;;;;;5032742;28;20392;-69
2021/04/04 03:21:35;;;;;;;5.68;1.98;;;16.50;55.30;;;;;;5050255;28;20040;-70
2021/04/04 03:24:03;;;;;;;6.32;2.40;;;16.40;55.20;;;;;;5050391;28;20025;-70
2021/04/04 03:26:29;;;;;;;6.35;2.30;;;16.40;55.30;;;;;;5050468;28;20032;-69
2021/04/04 03:28:55;;;;;;;5.75;1.92;;;16.40;55.30;;;;;;5049520;28;20028;-71
2021/04/04 03:31:21;;;;;;;6.60;2.45;;;16.40;55.30;;;;;;5049277;28;20124;-68
2021/04/04 03:33:47;;;;;;;6.75;2.22;;;16.40;55.40;;;;;;5032368;28;20108;-69
2021/04/04 03:36:18;;;;;;;5.85;2.05;;;16.40;55.50;;;;;;5050310;28;20029;-70
2021/04/04 03:38:45;;;;;;;7.60;2.05;;;16.40;55.50;;;;;;5047838;28;20033;-69
2021/04/04 03:41:12;;;;;;;5.25;1.92;;;16.40;55.50;;;;;;5073684;23;20147;-67
2021/04/04 03:43:38;;;;;;;5.70;1.80;;;16.40;55.50;;;;;;5028340;28;20464;-70
2021/04/04 03:46:07;;;;;;;6.25;1.95;;;16.30;55.50;;;;;;5030313;28;20022;-73
2021/04/04 03:48:34;;;;;;;6.18;1.90;;;16.40;55.50;;;;;;5030817;28;20400;-67
2021/04/04 03:51:04;;;;;;;5.95;1.85;;;16.40;55.50;;;;;;5029138;28;20429;-70
2021/04/04 03:53:32;;;;;;;6.95;2.10;;;16.30;55.50;;;;;;5029830;28;20036;-71
2021/04/04 03:56:04;;;;;;;6.22;2.10;;;16.30;55.50;;;;;;5027212;28;20022;-70
2021/04/04 03:58:33;;;;;;;7.10;2.03;;;16.30;55.60;;;;;;4999667;28;20053;-70
2021/04/04 04:01:01;;;;;;;6.00;2.10;;;16.30;55.60;;;;;;5025275;28;20034;-72
2021/04/04 04:03:28;;;;;;;6.22;1.90;;;16.30;55.70;;;;;;4996568;28;20072;-72
2021/04/04 04:05:54;;;;;;;5.78;2.15;;;16.30;55.70;;;;;;5016309;28;20044;-69
2021/04/04 04:08:20;;;;;;;4.72;1.80;;;16.30;55.70;;;;;;5029476;28;20029;-70
2021/04/04 04:10:48;;;;;;;7.40;1.92;;;16.30;55.70;;;;;;5019646;28;20022;-72
2021/04/04 04:13:14;;;;;;;4.68;2.10;;;16.30;55.80;;;;;;5024033;28;20026;-73
2021/04/04 04:15:40;;;;;;;6.13;2.00;;;16.30;55.80;;;;;;5014313;28;20053;-70
2021/04/04 04:18:07;;;;;;;4.40;1.88;;;16.20;55.70;;;;;;5023137;28;20053;-72
2021/04/04 04:20:34;;;;;;;5.88;2.00;;;16.20;55.70;;;;;;5000103;28;20025;-69
2021/04/04 04:23:06;;;;;;;5.95;1.95;;;16.20;55.70;;;;;;5016695;28;20034;-67
2021/04/04 04:25:32;;;;;;;;;;;16.20;55.70;;;;;;4996864;28;20038;-73
2021/04/04 04:27:58;;;;;;;6.70;1.98;;;16.20;55.70;;;;;;5014086;28;20391;-73
2021/04/04 04:30:25;;;;;;;7.28;2.10;;;16.20;55.70;;;;;;5014945;28;20045;-71
2021/04/04 04:32:57;;;;;;;6.10;2.10;;;16.20;55.70;;;;;;5033358;28;20060;-70
2021/04/04 04:35:25;;;;;;;6.55;2.38;;;16.20;55.80;;;;;;5015979;28;20026;-69
2021/04/04 04:37:51;;;;;;;5.03;1.67;;;16.20;55.80;;;;;;5013777;28;20018;-72
2021/04/04 04:40:18;;;;;;;5.72;1.60;;;16.20;55.90;;;;;;5014682;28;20026;-69
2021/04/04 04:42:47;;;;;;;4.88;1.70;;;16.20;55.80;;;;;;5032962;28;20037;-70
2021/04/04 04:45:35;;;;;;;4.13;1.52;;;16.20;55.90;;;;;;5033146;28;20092;-71
2021/04/04 04:48:01;;;;;;;6.65;1.80;;;16.20;55.90;;;;;;5015453;28;20083;-70
2021/04/04 04:50:27;;;;;;;5.93;1.60;;;16.20;56.00;;;;;;5031230;28;20026;-70
2021/04/04 04:52:55;;;;;;;5.47;1.80;;;16.10;55.90;;;;;;5014282;28;20682;-70
2021/04/04 04:55:23;;;;;;;6.53;2.20;;;16.20;56.00;;;;;;5013378;28;20366;-69
2021/04/04 04:57:49;;;;;;;5.20;1.70;;;16.10;55.90;;;;;;5007717;28;20543;-69
2021/04/04 05:00:15;;;;;;;6.38;2.00;;;16.20;56.00;;;;;;5014744;28;20105;-72
2021/04/04 05:02:42;;;;;;;5.32;1.80;;;16.10;56.00;;;;;;5031664;28;20037;-72
2021/04/04 05:05:10;;;;;;;6.00;1.83;;;16.10;56.00;;;;;;5014821;28;20032;-73
2021/04/04 05:07:37;;;;;;;5.45;1.90;;;16.10;55.90;;;;;;5032823;28;20116;-67
2021/04/04 05:10:07;;;;;;;5.35;1.83;;;16.10;56.00;;;;;;5016354;28;20415;-70
2021/04/04 05:12:35;;;;;;;5.35;1.85;;;16.10;55.90;;;;;;5012961;28;20029;-73
2021/04/04 05:15:05;;;;;;;5.20;1.77;;;16.10;56.00;;;;;;5000765;28;20054;-69
2021/04/04 05:17:34;;;;;;;6.20;1.85;;;16.10;56.00;;;;;;5013022;28;20513;-70
2021/04/04 05:20:00;;;;;;;5.03;1.90;;;16.10;56.00;;;;;;5025370;28;20082;-72
2021/04/04 05:22:27;;;;;;;5.10;1.80;;;16.10;56.10;;;;;;5030467;28;20104;-71
2021/04/04 05:24:54;;;;;;;4.80;1.98;;;16.00;56.00;;;;;;5019327;28;20057;-67
2021/04/04 05:27:20;;;;;;;5.47;1.73;;;16.10;56.00;;;;;;5016866;28;20080;-69
2021/04/04 05:29:45;;;;;;;5.43;1.80;;;16.10;56.00;;;;;;4993834;28;20456;-72
2021/04/04 05:32:11;;;;;;;5.15;1.52;;;16.10;55.90;;;;;;5012800;28;20048;-71
2021/04/04 05:34:39;;;;;;;4.88;2.00;;;16.10;55.80;;;;;;5022996;28;20373;-69
2021/04/04 05:37:07;;;;;;;4.38;1.48;;;16.10;55.90;;;;;;5014438;28;20460;-72
2021/04/04 05:39:35;;;;;;;5.88;1.80;;;16.10;55.80;;;;;;5032293;28;20113;-72
2021/04/04 05:42:06;;;;;;;4.68;1.70;;;16.10;55.70;;;;;;4996153;28;20120;-70
2021/04/04 05:44:45;;;;;;;5.28;1.75;;;16.10;55.70;;;;;;5021560;28;20033;-71
2021/04/04 05:47:14;;;;;;;4.80;1.67;;;16.10;55.70;;;;;;5014935;28;20436;-72
2021/04/04 05:49:53;;;;;;;4.25;1.70;;;16.10;55.70;;;;;;5007809;28;20033;-72
2021/04/04 05:52:39;;;;;;;5.25;1.65;;;16.20;55.70;;;;;;5001572;28;20412;-71
2021/04/04 05:55:42;;;;;;;4.75;1.50;;;16.10;55.60;;;;;;5013452;28;20554;-73
2021/04/04 05:58:25;;;;;;;5.05;2.03;;;16.10;55.60;;;;;;5012372;28;20026;-72
2021/04/04 06:00:57;;;;;;;5.10;1.58;;;16.10;55.70;;;;;;5020432;28;20125;-72
2021/04/04 06:03:45;;;;;;;4.97;1.60;;;16.10;55.60;;;;;;5013271;28;20029;-73
2021/04/04 06:07:07;;;;;;;4.32;1.80;;;16.10;55.60;;;;;;5023825;28;20029;-72
2021/04/04 06:09:45;;;;;;;4.43;1.58;;;16.20;55.70;;;;;;4945870;28;20118;-73
2021/04/04 06:12:44;;;;;;;5.00;1.60;;;16.20;55.60;;;;;;4939791;29;20050;-72
2021/04/04 06:15:32;;;;;;;5.28;1.73;;;16.20;55.60;;;;;;5004943;28;20496;-70
2021/04/04 06:18:09;;;;;;;6.35;1.85;;;16.20;55.60;;;;;;5012012;28;20073;-72
2021/04/04 06:21:02;;;;;;;4.28;1.50;;;16.20;55.60;;;;;;5013131;28;20121;-70
2021/04/04 06:23:41;;;;;;;5.72;1.50;;;16.20;55.50;;;;;;5011173;28;20026;-74
2021/04/04 06:26:36;;;;;;;4.65;2.13;;;16.20;55.50;;;;;;4995758;28;20025;-72
2021/04/04 06:29:28;;;;;;;4.22;1.50;;;16.20;55.50;;;;;;4986138;28;20121;-72
2021/04/04 06:32:19;;;;;;;6.18;1.50;;;16.20;55.40;;;;;;4985606;28;20085;-70
2021/04/04 06:34:51;;;;;;;6.50;1.60;;;16.20;55.30;;;;;;4993971;28;20018;-71
2021/04/04 06:37:22;;;;;;;5.35;1.83;;;16.20;55.30;;;;;;5011689;28;20452;-70
2021/04/04 06:40:07;;;;;;;5.18;1.80;;;16.20;55.30;;;;;;5011745;28;20473;-69
2021/04/04 06:42:56;;;;;;;9.55;2.33;;;16.30;55.20;;;;;;4989718;28;20037;-70
2021/04/04 06:45:27;;;;;;;5.88;1.52;;;16.50;54.90;;;;;;5008451;28;20034;-68
2021/04/04 06:48:05;;;;;;;5.10;1.80;;;16.60;54.40;;;;;;4993756;28;20529;-72
2021/04/04 06:50:36;;;;;;;5.75;1.50;;;16.60;54.20;;;;;;5011537;28;20021;-73
2021/04/04 06:53:28;;;;;;;5.63;1.67;;;16.60;54.00;;;;;;4991593;28;20023;-71
2021/04/04 06:56:17;;;;;;;4.10;1.70;;;16.60;54.00;;;;;;5005215;28;20026;-72
2021/04/04 06:59:07;;;;;;;6.13;1.52;;;16.70;54.10;;;;;;4998067;28;20029;-70
2021/04/04 07:01:57;;;;;;;7.93;1.95;;;16.70;54.30;;;;;;4998644;28;20384;-72
2021/04/04 07:04:49;;;;;;;6.07;2.50;;;16.70;54.30;;;;;;5019052;28;20033;-73
2021/04/04 07:07:55;;;;;;;4.93;1.65;;;16.70;54.30;;;;;;5011636;28;20029;-71
2021/04/04 07:10:32;;;;;;;5.40;1.50;;;16.60;54.20;;;;;;4991886;28;20029;-73
2021/04/04 07:13:33;;;;;;;5.80;1.80;;;16.70;54.10;;;;;;4992066;28;20022;-70
2021/04/04 07:16:36;;;;;;;5.63;1.70;;;16.70;54.20;;;;;;4991233;28;20056;-72
2021/04/04 07:19:22;;;;;;;6.15;2.08;;;16.70;54.60;;;;;;5008146;28;20113;-71
2021/04/04 07:21:54;;;;;;;4.15;1.40;;;16.60;55.10;;;;;;5010588;28;20022;-71
2021/04/04 07:24:49;;;;;;;3.83;1.40;;;16.60;55.10;;;;;;5010478;28;20034;-69
2021/04/04 07:27:37;;;;;;;3.88;1.58;;;16.60;54.70;;;;;;5010727;28;20025;-71
2021/04/04 07:30:32;;;;;;;7.47;1.95;;;16.60;54.60;;;;;;5010013;28;20018;-71
2021/04/04 07:33:15;;;;;;;10.63;2.47;;;16.60;54.40;;;;;;5008586;28;20033;-71
2021/04/04 07:35:47;;;;;;;8.38;2.30;;;16.70;54.30;;;;;;4994436;28;20029;-71
2021/04/04 07:38:21;;;;;;;7.25;1.83;;;16.80;54.30;;;;;;4994291;28;20033;-72
2021/04/04 07:41:03;;;;;;;8.20;2.15;;;16.70;54.30;;;;;;5011900;28;20116;-70
2021/04/04 07:43:38;;;;;;;;;;;16.70;54.90;;;;;;4995670;28;20371;-72
2021/04/04 07:46:13;;;;;;;11.50;5.03;;;16.70;55.10;;;;;;5007477;28;19921;-69
2021/04/04 07:48:55;;;;;;;11.20;4.40;;;16.70;55.00;;;;;;5014456;28;20028;-70
2021/04/04 07:51:26;;;;;;;7.05;2.10;;;16.70;54.90;;;;;;4998214;28;20050;-69
2021/04/04 07:53:58;;;;;;;7.53;2.17;;;16.70;55.20;;;;;;5013942;28;20100;-68
2021/04/04 07:56:39;;;;;;;29.73;21.30;;;16.70;55.40;;;;;;5013838;28;20378;-70
2021/04/04 07:59:26;;;;;;;38.47;29.23;;;16.70;55.30;;;;;;4994306;28;20026;-72
2021/04/04 08:02:10;;;;;;;19.98;14.05;;;16.70;55.10;;;;;;5001447;28;20030;-71
2021/04/04 08:04:46;;;;;;;12.85;6.97;;;16.70;55.00;;;;;;4995732;28;20053;-72
2021/04/04 08:07:19;;;;;;;11.27;5.18;;;16.70;55.10;;;;;;5013877;28;20037;-71
2021/04/04 08:09:58;;;;;;;9.95;4.22;;;16.80;55.20;;;;;;5013799;28;20030;-70
2021/04/04 08:12:35;;;;;;;10.32;4.22;;;17.20;54.60;;;;;;5013194;28;20080;-68
2021/04/04 08:15:21;;;;;;;10.55;4.22;;;17.50;53.50;;;;;;5013350;28;20022;-71
2021/04/04 08:17:47;;;;;;;9.48;3.42;;;17.80;52.90;;;;;;4994042;28;20029;-71
2021/04/04 08:20:30;;;;;;;11.60;3.30;;;17.80;52.60;;;;;;4992046;28;20030;-71
2021/04/04 08:23:07;;;;;;;8.93;3.50;;;17.90;52.50;;;;;;4992430;28;20029;-72
2021/04/04 08:25:58;;;;;;;13.82;3.95;;;17.90;52.90;;;;;;5013462;28;20034;-70
2021/04/04 08:28:41;;;;;;;10.23;3.40;;;17.90;52.80;;;;;;5012702;28;20026;-69
2021/04/04 08:31:35;;;;;;;11.65;3.40;;;18.00;53.60;;;;;;4992634;28;20025;-68
2021/04/04 08:34:06;;;;;;;9.02;3.35;;;18.00;52.80;;;;;;5009633;28;20034;-71
2021/04/04 08:36:37;;;;;;;6.28;2.78;;;18.10;52.90;;;;;;4993265;28;20022;-70
2021/04/04 08:39:04;;;;;;;7.22;2.60;;;18.10;52.50;;;;;;5012911;28;20030;-70
2021/04/04 08:41:35;;;;;;;9.70;3.03;;;18.20;52.40;;;;;;4994255;28;20038;-71
2021/04/04 08:44:08;;;;;;;8.20;2.90;;;18.20;52.60;;;;;;4991847;28;20049;-70
2021/04/04 08:46:51;;;;;;;7.20;2.70;;;18.20;52.70;;;;;;4993439;28;20091;-71
2021/04/04 08:49:18;;;;;;;11.30;3.10;;;18.30;52.70;;;;;;4993862;28;20517;-70
2021/04/04 08:51:51;;;;;;;8.25;2.40;;;18.30;52.50;;;;;;5018536;28;20026;-73
2021/04/04 08:54:19;;;;;;;7.35;3.10;;;18.30;52.70;;;;;;4993699;28;20022;-71
2021/04/04 08:56:48;;;;;;;7.70;3.45;;;18.30;52.70;;;;;;5011458;28;20397;-72
2021/04/04 08:59:19;;;;;;;12.95;5.28;;;18.30;52.80;;;;;;5011302;28;20064;-72
2021/04/04 09:01:51;;;;;;;10.07;4.78;;;18.30;52.80;;;;;;5007717;28;20026;-71
2021/04/04 09:04:18;;;;;;;7.78;4.00;;;18.30;53.00;;;;;;5009662;28;20396;-71
2021/04/04 09:06:44;;;;;;;8.93;3.75;;;18.30;52.90;;;;;;5011551;28;20018;-71
2021/04/04 09:09:26;;;;;;;8.05;3.65;;;18.40;53.20;;;;;;5012017;28;20065;-72
2021/04/04 09:11:53;;;;;;;15.60;4.28;;;18.40;53.80;;;;;;5012074;28;20018;-70
2021/04/04 09:14:22;;;;;;;13.30;4.55;;;18.40;53.40;;;;;;5011895;28;20096;-71
2021/04/04 09:16:59;;;;;;;14.35;4.47;;;18.50;52.80;;;;;;4995518;28;20108;-69
2021/04/04 09:19:38;;;;;;;8.55;3.55;;;18.50;52.80;;;;;;5012627;28;20513;-71
2021/04/04 09:22:24;;;;;;;9.85;3.35;;;18.50;53.00;;;;;;4994656;28;20029;-68
2021/04/04 09:24:59;;;;;;;11.05;3.20;;;18.50;53.30;;;;;;5012164;28;20045;-69
2021/04/04 09:27:33;;;;;;;13.93;3.00;;;18.60;53.40;;;;;;5013232;28;20022;-69
2021/04/04 09:30:01;;;;;;;14.93;4.28;;;18.60;53.80;;;;;;5014021;28;20092;-69
2021/04/04 09:32:45;;;;;;;14.48;7.80;;;18.70;53.90;;;;;;5012043;28;20022;-69
2021/04/04 09:35:15;;;;;;;17.60;8.63;;;18.70;54.20;;;;;;5012772;28;20105;-71
2021/04/04 09:37:42;;;;;;;16.50;9.45;;;18.80;55.00;;;;;;5008348;28;20029;-72
2021/04/04 09:40:08;;;;;;;21.10;9.25;;;19.00;53.60;;;;;;5024436;28;20396;-71
2021/04/04 09:42:35;;;;;;;19.23;7.68;;;19.10;53.40;;;;;;5009240;28;20029;-72
2021/04/04 09:45:16;;;;;;;14.88;7.22;;;19.20;53.40;;;;;;5012645;28;20440;-71
2021/04/04 09:47:42;;;;;;;16.13;6.43;;;19.20;53.40;;;;;;5012917;28;20088;-71
2021/04/04 09:50:25;;;;;;;11.88;6.50;;;19.30;53.30;;;;;;5012696;28;20057;-71
2021/04/04 09:52:52;;;;;;;13.18;6.05;;;19.30;53.30;;;;;;5012367;28;20053;-71
2021/04/04 09:55:20;;;;;;;12.98;5.60;;;19.30;53.30;;;;;;5012841;28;20022;-69
2021/04/04 09:57:57;;;;;;;13.25;5.35;;;19.40;53.10;;;;;;5012768;28;20030;-70
2021/04/04 10:00:34;;;;;;;13.73;5.50;;;19.50;53.10;;;;;;5010832;28;20025;-71
2021/04/04 10:03:14;;;;;;;13.35;5.55;;;19.50;53.00;;;;;;5004227;28;20460;-69
2021/04/04 10:05:43;;;;;;;13.65;5.47;;;19.50;53.00;;;;;;4996243;28;20025;-71
2021/04/04 10:08:29;;;;;;;10.43;5.10;;;19.50;53.00;;;;;;5014543;28;20156;-72
2021/04/04 10:10:58;;;;;;;11.23;4.85;;;19.40;53.20;;;;;;5010879;28;20132;-72
2021/04/04 10:13:25;;;;;;;10.43;4.65;;;19.30;53.20;;;;;;5011058;28;20030;-71
2021/04/04 10:15:52;;;;;;;12.20;4.72;;;19.30;53.40;;;;;;5011086;28;20481;-68
2021/04/04 10:18:20;;;;;;;10.80;4.60;;;19.30;53.60;;;;;;5010911;28;20033;-71
2021/04/04 10:20:56;;;;;;;9.85;4.40;;;19.30;53.70;;;;;;5010680;28;20024;-71
2021/04/04 10:23:34;;;;;;;8.02;3.67;;;19.30;53.50;;;;;;4992935;28;20029;-71
2021/04/04 10:26:08;;;;;;;7.78;3.40;;;19.30;53.60;;;;;;5009970;28;20404;-71
2021/04/04 10:28:43;;;;;;;12.77;3.97;;;19.20;53.50;;;;;;5025440;28;20026;-72
2021/04/04 10:31:09;;;;;;;9.80;3.22;;;19.10;52.90;;;;;;4994484;28;20033;-71
2021/04/04 10:33:34;;;;;;;10.65;3.25;;;19.00;53.00;;;;;;5011171;28;20026;-68
2021/04/04 10:36:14;;;;;;;8.60;3.88;;;19.00;53.40;;;;;;5011268;28;20029;-72
2021/04/04 10:38:40;;;;;;;8.20;3.25;;;18.90;53.50;;;;;;5011857;28;20675;-71
2021/04/04 10:41:06;;;;;;;11.13;3.40;;;18.90;53.60;;;;;;5014186;28;20065;-72
2021/04/04 10:43:41;;;;;;;7.60;3.05;;;18.80;53.60;;;;;;5017562;28;20041;-71
2021/04/04 10:46:10;;;;;;;8.45;3.22;;;18.80;53.70;;;;;;5004197;28;20033;-71
2021/04/04 10:48:47;;;;;;;6.97;3.08;;;18.80;53.80;;;;;;5018593;28;20025;-71
2021/04/04 10:51:15;;;;;;;7.13;2.75;;;18.80;53.90;;;;;;5001678;28;20033;-71
2021/04/04 10:53:41;;;;;;;5.95;2.85;;;18.80;53.80;;;;;;5018032;28;20477;-72
2021/04/04 10:56:08;;;;;;;8.32;2.85;;;18.80;53.90;;;;;;5019795;28;20029;-72
2021/04/04 10:58:35;;;;;;;6.82;2.60;;;18.80;53.90;;;;;;4994978;28;20033;-72
2021/04/04 11:01:02;;;;;;;7.53;2.80;;;18.70;53.80;;;;;;5021080;28;20022;-72
2021/04/04 11:03:28;;;;;;;5.32;2.38;;;18.70;53.90;;;;;;5031895;28;20021;-72
2021/04/04 11:05:54;;;;;;;7.30;2.67;;;18.70;53.80;;;;;;5013776;28;20033;-70
2021/04/04 11:08:21;;;;;;;8.50;2.80;;;18.70;53.60;;;;;;5032449;28;20053;-70
2021/04/04 11:10:48;;;;;;;5.95;2.50;;;18.70;53.80;;;;;;5020872;28;20021;-69
2021/04/04 11:13:15;;;;;;;6.10;2.20;;;18.70;54.40;;;;;;5022475;28;20029;-72
2021/04/04 11:16:07;;;;;;;8.73;2.50;;;18.70;54.10;;;;;;5038589;28;20078;-69
2021/04/04 11:18:36;;;;;;;9.90;2.65;;;18.60;53.60;;;;;;5016053;28;20511;-69
2021/04/04 11:21:06;;;;;;;14.32;3.33;;;18.60;53.20;;;;;;5004643;28;20041;-67
2021/04/04 11:23:32;;;;;;;14.82;2.45;;;18.50;52.90;;;;;;5009581;28;20026;-70
2021/04/04 11:25:58;;;;;;;13.60;2.58;;;18.60;52.80;;;;;;5012578;28;20500;-69
2021/04/04 11:28:25;;;;;;;12.20;2.50;;;18.60;52.70;;;;;;4996229;28;20113;-70
2021/04/04 11:30:52;;;;;;;17.08;10.30;;;18.50;53.00;;;;;;4994212;28;20053;-69
2021/04/04 11:33:17;;;;;;;18.63;10.50;;;18.60;53.50;;;;;;5012785;28;20125;-68
2021/04/04 11:36:01;;;;;;;15.43;8.35;;;18.50;53.30;;;;;;4996985;28;20488;-71
2021/04/04 11:38:28;;;;;;;13.85;7.32;;;18.60;53.40;;;;;;4992114;28;20508;-68
2021/04/04 11:41:13;;;;;;;15.68;6.65;;;18.50;53.30;;;;;;4996342;28;20029;-70
2021/04/04 11:43:39;;;;;;;11.77;5.60;;;18.50;53.40;;;;;;4976296;28;20030;-71
2021/04/04 11:46:25;;;;;;;12.70;5.20;;;18.50;53.40;;;;;;4991444;28;20029;-69
2021/04/04 11:48:51;;;;;;;9.77;4.72;;;18.50;53.40;;;;;;4995605;28;20562;-69
2021/04/04 11:51:16;;;;;;;11.40;4.93;;;18.50;53.40;;;;;;4996500;28;20033;-70
2021/04/04 11:53:47;;;;;;;11.38;4.38;;;18.50;53.40;;;;;;4996174;28;20057;-69
2021/04/04 11:56:41;;;;;;;10.32;4.10;;;18.50;53.40;;;;;;5021884;28;20032;-70
2021/04/04 11:59:07;;;;;;;10.02;4.43;;;18.50;53.40;;;;;;4994675;28;20018;-68
2021/04/04 12:01:33;;;;;;;10.70;3.90;;;18.50;53.30;;;;;;5012743;28;20556;-68
2021/04/04 12:04:16;;;;;;;8.93;3.47;;;18.50;53.40;;;;;;5012173;28;20022;-68
2021/04/04 12:06:41;;;;;;;9.73;3.63;;;18.50;53.40;;;;;;5012829;28;20097;-69
2021/04/04 12:09:07;;;;;;;10.73;3.83;;;18.50;53.40;;;;;;4994664;28;20117;-71
2021/04/04 12:11:33;;;;;;;8.18;3.38;;;18.50;53.50;;;;;;5012542;28;20026;-70
2021/04/04 12:14:00;;;;;;;10.95;3.60;;;18.50;53.50;;;;;;4993790;28;20033;-68
2021/04/04 12:16:25;;;;;;;7.78;3.42;;;18.50;53.50;;;;;;5012946;28;20030;-69
2021/04/04 12:19:01;;;;;;;9.10;3.00;;;18.50;53.50;;;;;;5012716;28;20369;-69
2021/04/04 12:21:26;;;;;;;7.43;3.20;;;18.40;53.40;;;;;;4999599;28;20030;-69
2021/04/04 12:23:53;;;;;;;9.85;3.35;;;18.50;53.60;;;;;;4994891;28;20125;-69
2021/04/04 12:26:19;;;;;;;9.50;3.00;;;18.40;53.40;;;;;;4995212;28;20065;-67
2021/04/04 12:28:44;;;;;;;9.07;2.80;;;18.40;53.40;;;;;;4995036;28;20042;-70
2021/04/04 12:31:11;;;;;;;9.38;3.00;;;18.40;53.50;;;;;;4995080;28;20029;-71
2021/04/04 12:33:38;;;;;;;10.32;2.80;;;18.40;53.80;;;;;;5012315;28;20105;-68
2021/04/04 12:36:04;;;;;;;10.43;3.28;;;18.40;53.40;;;;;;4995205;28;20097;-69
2021/04/04 12:38:32;;;;;;;5.68;2.30;;;18.40;53.30;;;;;;5012225;28;20097;-69
2021/04/04 12:40:59;;;;;;;8.13;2.35;;;18.50;53.20;;;;;;5008597;28;20026;-66
2021/04/04 12:43:25;;;;;;;13.07;8.48;;;18.60;52.90;;;;;;5012994;28;20374;-70
2021/04/04 12:45:52;;;;;;;10.20;3.97;;;18.80;52.90;;;;;;5011675;28;20066;-68
2021/04/04 12:48:19;;;;;;;9.90;4.70;;;18.80;52.90;;;;;;5013500;28;20033;-68
2021/04/04 12:50:46;;;;;;;9.20;4.10;;;18.80;52.70;;;;;;5012926;28;20029;-69
2021/04/04 12:53:29;;;;;;;8.00;3.83;;;18.90;53.30;;;;;;5012731;28;20072;-69
2021/04/04 12:55:55;;;;;;;11.10;3.53;;;18.90;53.40;;;;;;5010420;28;20088;-68
2021/04/04 12:58:29;;;;;;;9.55;3.60;;;18.90;53.10;;;;;;5013068;28;20389;-67
2021/04/04 13:00:54;;;;;;;6.00;3.40;;;18.90;53.00;;;;;;5012799;28;20362;-70
2021/04/04 13:03:20;;;;;;;7.28;3.38;;;18.90;52.90;;;;;;5015259;28;20051;-69
2021/04/04 13:05:48;;;;;;;10.77;3.45;;;18.80;52.90;;;;;;5004677;28;20018;-69
2021/04/04 13:08:16;;;;;;;8.50;2.97;;;18.80;53.00;;;;;;5014231;28;20026;-69
2021/04/04 13:11:07;;;;;;;7.80;3.03;;;18.80;53.10;;;;;;5012342;28;20042;-69
2021/04/04 13:13:34;;;;;;;12.85;3.47;;;18.80;53.30;;;;;;4998896;28;20030;-69